sensor_id;sensor_type;location;lat;lon;timestamp;P1;durP1;ratioP1;P2;durP2;ratioP2
66946;SDS011;53853;51.982;5.928;2023-06-14T00:00:51;7.63;;;3.55;;
66946;SDS011;53853;51.982;5.928;2023-06-14T00:03:22;5.50;;;2.90;;
66946;SDS011;53853;51.982;5.928;2023-06-14T00:05:52;3.60;;;2.38;;
66946;SDS011;53853;51.982;5.928;2023-06-14T00:08:22;5.40;;;2.25;;
66946;SDS011;53853;51.982;5.928;2023-06-14T00:10:54;5.47;;;2.63;;
66946;SDS011;53853;51.982;5.928;2023-06-14T00:13:24;4.40;;;2.75;;
66946;SDS011;53853;51.982;5.928;2023-06-14T00:15:54;4.57;;;2.55;;
66946;SDS011;53853;51.982;5.928;2023-06-14T00:18:23;3.97;;;2.50;;
66946;SDS011;53853;51.982;5.928;2023-06-14T00:20:55;4.68;;;2.72;;
66946;SDS011;53853;51.982;5.928;2023-06-14T00:23:24;5.63;;;2.97;;
66946;SDS011;53853;51.982;5.928;2023-06-14T00:25:57;4.80;;;2.55;;
66946;SDS011;53853;51.982;5.928;2023-06-14T00:28:27;5.10;;;2.20;;
66946;SDS011;53853;51.982;5.928;2023-06-14T00:30:57;4.30;;;2.58;;
66946;SDS011;53853;51.982;5.928;2023-06-14T00:33:28;6.10;;;2.80;;
66946;SDS011;53853;51.982;5.928;2023-06-14T00:35:57;4.22;;;2.20;;
66946;SDS011;53853;51.982;5.928;2023-06-14T00:38:27;5.75;;;3.50;;
66946;SDS011;53853;51.982;5.928;2023-06-14T00:41:00;4.53;;;2.20;;
66946;SDS011;53853;51.982;5.928;2023-06-14T00:43:29;5.22;;;2.53;;
66946;SDS011;53853;51.982;5.928;2023-06-14T00:46:00;4.60;;;2.47;;
66946;SDS011;53853;51.982;5.928;2023-06-14T00:48:30;7.50;;;2.97;;
66946;SDS011;53853;51.982;5.928;2023-06-14T00:51:01;4.88;;;2.35;;
66946;SDS011;53853;51.982;5.928;2023-06-14T00:53:32;4.47;;;2.03;;
66946;SDS011;53853;51.982;5.928;2023-06-14T00:56:05;3.88;;;2.45;;
66946;SDS011;53853;51.982;5.928;2023-06-14T00:58:34;4.63;;;2.85;;
66946;SDS011;53853;51.982;5.928;2023-06-14T01:01:04;4.55;;;2.55;;
66946;SDS011;53853;51.982;5.928;2023-06-14T01:03:34;5.70;;;2.45;;
66946;SDS011;53853;51.982;5.928;2023-06-14T01:06:06;3.75;;;2.15;;
66946;SDS011;53853;51.982;5.928;2023-06-14T01:08:57;4.47;;;2.30;;
66946;SDS011;53853;51.982;5.928;2023-06-14T01:11:36;3.92;;;2.38;;
66946;SDS011;53853;51.982;5.928;2023-06-14T01:14:12;4.60;;;2.28;;
66946;SDS011;53853;51.982;5.928;2023-06-14T01:16:45;4.43;;;2.38;;
66946;SDS011;53853;51.982;5.928;2023-06-14T01:19:20;6.45;;;2.67;;
66946;SDS011;53853;51.982;5.928;2023-06-14T01:21:51;4.55;;;2.50;;
66946;SDS011;53853;51.982;5.928;2023-06-14T01:24:24;5.25;;;2.60;;
66946;SDS011;53853;51.982;5.928;2023-06-14T01:26:57;8.02;;;3.28;;
66946;SDS011;53853;51.982;5.928;2023-06-14T01:29:29;7.05;;;2.40;;
66946;SDS011;53853;51.982;5.928;2023-06-14T01:32:02;4.43;;;2.65;;
66946;SDS011;53853;51.982;5.928;2023-06-14T01:34:33;3.47;;;2.25;;
66946;SDS011;53853;51.982;5.928;2023-06-14T01:37:03;5.93;;;2.55;;
66946;SDS011;53853;51.982;5.928;2023-06-14T01:39:37;3.30;;;2.15;;
66946;SDS011;53853;51.982;5.928;2023-06-14T01:42:07;3.60;;;2.40;;
66946;SDS011;53853;51.982;5.928;2023-06-14T01:44:38;5.97;;;2.63;;
66946;SDS011;53853;51.982;5.928;2023-06-14T01:47:08;3.10;;;2.40;;
66946;SDS011;53853;51.982;5.928;2023-06-14T01:49:39;3.83;;;2.20;;
66946;SDS011;53853;51.982;5.928;2023-06-14T01:52:09;3.60;;;2.25;;
66946;SDS011;53853;51.982;5.928;2023-06-14T01:54:41;5.22;;;1.90;;
66946;SDS011;53853;51.982;5.928;2023-06-14T01:57:13;4.97;;;2.28;;
66946;SDS011;53853;51.982;5.928;2023-06-14T01:59:43;4.57;;;2.20;;
66946;SDS011;53853;51.982;5.928;2023-06-14T02:02:14;5.15;;;2.65;;
66946;SDS011;53853;51.982;5.928;2023-06-14T02:04:44;3.08;;;2.10;;
66946;SDS011;53853;51.982;5.928;2023-06-14T02:07:15;4.32;;;2.45;;
66946;SDS011;53853;51.982;5.928;2023-06-14T02:09:48;4.68;;;2.60;;
66946;SDS011;53853;51.982;5.928;2023-06-14T02:12:18;4.82;;;1.80;;
66946;SDS011;53853;51.982;5.928;2023-06-14T02:14:47;4.95;;;2.20;;
66946;SDS011;53853;51.982;5.928;2023-06-14T02:17:17;4.80;;;2.00;;
66946;SDS011;53853;51.982;5.928;2023-06-14T02:19:47;6.40;;;2.20;;
66946;SDS011;53853;51.982;5.928;2023-06-14T02:22:17;4.15;;;2.13;;
66946;SDS011;53853;51.982;5.928;2023-06-14T02:24:50;3.63;;;2.05;;
66946;SDS011;53853;51.982;5.928;2023-06-14T02:27:20;4.25;;;2.03;;
66946;SDS011;53853;51.982;5.928;2023-06-14T02:29:49;4.07;;;2.38;;
66946;SDS011;53853;51.982;5.928;2023-06-14T02:32:19;4.68;;;2.20;;
66946;SDS011;53853;51.982;5.928;2023-06-14T02:34:49;5.85;;;2.03;;
66946;SDS011;53853;51.982;5.928;2023-06-14T02:37:19;7.15;;;2.00;;
66946;SDS011;53853;51.982;5.928;2023-06-14T02:39:51;3.75;;;1.85;;
66946;SDS011;53853;51.982;5.928;2023-06-14T02:42:21;4.13;;;2.58;;
66946;SDS011;53853;51.982;5.928;2023-06-14T02:44:51;4.38;;;2.53;;
66946;SDS011;53853;51.982;5.928;2023-06-14T02:47:21;4.07;;;2.28;;
66946;SDS011;53853;51.982;5.928;2023-06-14T02:49:51;6.28;;;2.60;;
66946;SDS011;53853;51.982;5.928;2023-06-14T02:52:21;4.57;;;2.70;;
66946;SDS011;53853;51.982;5.928;2023-06-14T02:54:53;4.05;;;2.47;;
66946;SDS011;53853;51.982;5.928;2023-06-14T02:57:23;4.43;;;2.38;;
66946;SDS011;53853;51.982;5.928;2023-06-14T02:59:53;3.00;;;1.92;;
66946;SDS011;53853;51.982;5.928;2023-06-14T03:02:23;3.92;;;2.10;;
66946;SDS011;53853;51.982;5.928;2023-06-14T03:04:53;8.85;;;2.30;;
66946;SDS011;53853;51.982;5.928;2023-06-14T03:07:29;3.80;;;2.20;;
66946;SDS011;53853;51.982;5.928;2023-06-14T03:10:04;7.53;;;2.30;;
66946;SDS011;53853;51.982;5.928;2023-06-14T03:12:35;3.55;;;2.05;;
66946;SDS011;53853;51.982;5.928;2023-06-14T03:15:05;4.47;;;2.13;;
66946;SDS011;53853;51.982;5.928;2023-06-14T03:17:40;2.88;;;1.90;;
66946;SDS011;53853;51.982;5.928;2023-06-14T03:20:11;5.40;;;2.20;;
66946;SDS011;53853;51.982;5.928;2023-06-14T03:22:41;4.38;;;2.40;;
66946;SDS011;53853;51.982;5.928;2023-06-14T03:25:14;6.18;;;2.83;;
66946;SDS011;53853;51.982;5.928;2023-06-14T03:27:47;3.88;;;2.15;;
66946;SDS011;53853;51.982;5.928;2023-06-14T03:30:19;5.32;;;2.22;;
66946;SDS011;53853;51.982;5.928;2023-06-14T03:32:51;5.70;;;2.30;;
66946;SDS011;53853;51.982;5.928;2023-06-14T03:35:22;3.65;;;2.45;;
66946;SDS011;53853;51.982;5.928;2023-06-14T03:37:52;4.18;;;2.20;;
66946;SDS011;53853;51.982;5.928;2023-06-14T03:40:26;4.03;;;2.10;;
66946;SDS011;53853;51.982;5.928;2023-06-14T03:43:01;2.58;;;1.92;;
66946;SDS011;53853;51.982;5.928;2023-06-14T03:45:31;3.67;;;2.50;;
66946;SDS011;53853;51.982;5.928;2023-06-14T03:48:01;6.20;;;2.60;;
66946;SDS011;53853;51.982;5.928;2023-06-14T03:50:32;3.78;;;2.00;;
66946;SDS011;53853;51.982;5.928;2023-06-14T03:53:03;4.65;;;2.00;;
66946;SDS011;53853;51.982;5.928;2023-06-14T03:55:38;3.38;;;2.20;;
66946;SDS011;53853;51.982;5.928;2023-06-14T03:58:07;4.07;;;2.10;;
66946;SDS011;53853;51.982;5.928;2023-06-14T04:00:39;3.42;;;2.08;;
66946;SDS011;53853;51.982;5.928;2023-06-14T04:03:09;3.55;;;1.80;;
66946;SDS011;53853;51.982;5.928;2023-06-14T04:05:40;3.85;;;2.00;;
66946;SDS011;53853;51.982;5.928;2023-06-14T04:08:15;3.70;;;1.98;;
66946;SDS011;53853;51.982;5.928;2023-06-14T04:10:47;3.97;;;2.30;;
66946;SDS011;53853;51.982;5.928;2023-06-14T04:13:17;3.53;;;2.42;;
66946;SDS011;53853;51.982;5.928;2023-06-14T04:15:47;6.10;;;2.00;;
66946;SDS011;53853;51.982;5.928;2023-06-14T04:18:24;6.22;;;2.47;;
66946;SDS011;53853;51.982;5.928;2023-06-14T04:20:55;5.88;;;2.50;;
66946;SDS011;53853;51.982;5.928;2023-06-14T04:23:26;5.30;;;2.22;;
66946;SDS011;53853;51.982;5.928;2023-06-14T04:25:58;3.20;;;2.03;;
66946;SDS011;53853;51.982;5.928;2023-06-14T04:28:29;4.60;;;2.13;;
66946;SDS011;53853;51.982;5.928;2023-06-14T04:31:06;2.80;;;1.90;;
66946;SDS011;53853;51.982;5.928;2023-06-14T04:33:38;6.00;;;1.92;;
66946;SDS011;53853;51.982;5.928;2023-06-14T04:36:12;6.50;;;2.38;;
66946;SDS011;53853;51.982;5.928;2023-06-14T04:38:44;5.65;;;2.42;;
66946;SDS011;53853;51.982;5.928;2023-06-14T04:41:18;5.88;;;2.92;;
66946;SDS011;53853;51.982;5.928;2023-06-14T04:43:49;6.20;;;2.60;;
66946;SDS011;53853;51.982;5.928;2023-06-14T04:46:19;4.13;;;2.40;;
66946;SDS011;53853;51.982;5.928;2023-06-14T04:48:49;5.68;;;2.42;;
66946;SDS011;53853;51.982;5.928;2023-06-14T04:51:20;9.07;;;5.60;;
66946;SDS011;53853;51.982;5.928;2023-06-14T04:53:55;6.60;;;2.15;;
66946;SDS011;53853;51.982;5.928;2023-06-14T04:56:30;3.63;;;2.10;;
66946;SDS011;53853;51.982;5.928;2023-06-14T04:59:00;3.70;;;2.30;;
66946;SDS011;53853;51.982;5.928;2023-06-14T05:01:31;3.85;;;2.30;;
66946;SDS011;53853;51.982;5.928;2023-06-14T05:04:01;4.05;;;2.67;;
66946;SDS011;53853;51.982;5.928;2023-06-14T05:06:31;4.30;;;2.60;;
66946;SDS011;53853;51.982;5.928;2023-06-14T05:09:02;3.90;;;2.30;;
66946;SDS011;53853;51.982;5.928;2023-06-14T05:11:34;3.97;;;2.10;;
66946;SDS011;53853;51.982;5.928;2023-06-14T05:14:04;4.32;;;2.33;;
66946;SDS011;53853;51.982;5.928;2023-06-14T05:16:34;4.22;;;2.35;;
66946;SDS011;53853;51.982;5.928;2023-06-14T05:19:05;5.38;;;2.30;;
66946;SDS011;53853;51.982;5.928;2023-06-14T05:21:36;4.55;;;2.20;;
66946;SDS011;53853;51.982;5.928;2023-06-14T05:24:06;4.28;;;2.25;;
66946;SDS011;53853;51.982;5.928;2023-06-14T05:26:39;4.13;;;2.67;;
66946;SDS011;53853;51.982;5.928;2023-06-14T05:29:09;5.57;;;2.95;;
66946;SDS011;53853;51.982;5.928;2023-06-14T05:31:39;4.97;;;2.85;;
66946;SDS011;53853;51.982;5.928;2023-06-14T05:34:09;4.05;;;2.28;;
66946;SDS011;53853;51.982;5.928;2023-06-14T05:36:38;6.93;;;3.00;;
66946;SDS011;53853;51.982;5.928;2023-06-14T05:39:08;7.75;;;3.40;;
66946;SDS011;53853;51.982;5.928;2023-06-14T05:41:41;4.55;;;2.35;;
66946;SDS011;53853;51.982;5.928;2023-06-14T05:44:11;4.13;;;2.45;;
66946;SDS011;53853;51.982;5.928;2023-06-14T05:46:41;6.13;;;2.25;;
66946;SDS011;53853;51.982;5.928;2023-06-14T05:49:12;3.88;;;2.20;;
66946;SDS011;53853;51.982;5.928;2023-06-14T05:51:41;3.38;;;2.00;;
66946;SDS011;53853;51.982;5.928;2023-06-14T05:54:11;4.63;;;2.78;;
66946;SDS011;53853;51.982;5.928;2023-06-14T05:56:43;4.13;;;2.55;;
66946;SDS011;53853;51.982;5.928;2023-06-14T05:59:13;8.32;;;2.58;;
66946;SDS011;53853;51.982;5.928;2023-06-14T06:01:43;3.50;;;2.03;;
66946;SDS011;53853;51.982;5.928;2023-06-14T06:04:14;3.90;;;2.67;;
66946;SDS011;53853;51.982;5.928;2023-06-14T06:06:44;4.72;;;2.47;;
66946;SDS011;53853;51.982;5.928;2023-06-14T06:09:14;7.07;;;2.70;;
66946;SDS011;53853;51.982;5.928;2023-06-14T06:11:47;5.43;;;2.40;;
66946;SDS011;53853;51.982;5.928;2023-06-14T06:14:17;4.13;;;2.30;;
66946;SDS011;53853;51.982;5.928;2023-06-14T06:16:46;4.72;;;2.55;;
66946;SDS011;53853;51.982;5.928;2023-06-14T06:19:18;6.13;;;2.53;;
66946;SDS011;53853;51.982;5.928;2023-06-14T06:21:48;3.25;;;2.38;;
66946;SDS011;53853;51.982;5.928;2023-06-14T06:24:18;3.80;;;2.42;;
66946;SDS011;53853;51.982;5.928;2023-06-14T06:26:50;4.97;;;2.80;;
66946;SDS011;53853;51.982;5.928;2023-06-14T06:29:20;6.45;;;3.05;;
66946;SDS011;53853;51.982;5.928;2023-06-14T06:31:49;7.07;;;3.20;;
66946;SDS011;53853;51.982;5.928;2023-06-14T06:34:19;5.10;;;2.60;;
66946;SDS011;53853;51.982;5.928;2023-06-14T06:36:49;3.72;;;2.65;;
66946;SDS011;53853;51.982;5.928;2023-06-14T06:39:19;3.95;;;2.60;;
66946;SDS011;53853;51.982;5.928;2023-06-14T06:41:51;5.13;;;2.90;;
66946;SDS011;53853;51.982;5.928;2023-06-14T06:44:31;4.75;;;2.90;;
66946;SDS011;53853;51.982;5.928;2023-06-14T06:47:01;4.97;;;2.63;;
66946;SDS011;53853;51.982;5.928;2023-06-14T06:49:31;4.00;;;2.60;;
66946;SDS011;53853;51.982;5.928;2023-06-14T06:52:01;4.85;;;2.53;;
66946;SDS011;53853;51.982;5.928;2023-06-14T06:54:32;4.10;;;2.50;;
66946;SDS011;53853;51.982;5.928;2023-06-14T06:57:05;5.43;;;2.63;;
66946;SDS011;53853;51.982;5.928;2023-06-14T06:59:36;4.10;;;2.40;;
66946;SDS011;53853;51.982;5.928;2023-06-14T07:02:06;4.88;;;2.40;;
66946;SDS011;53853;51.982;5.928;2023-06-14T07:04:36;4.00;;;2.58;;
66946;SDS011;53853;51.982;5.928;2023-06-14T07:07:06;5.53;;;2.65;;
66946;SDS011;53853;51.982;5.928;2023-06-14T07:09:36;4.10;;;2.40;;
66946;SDS011;53853;51.982;5.928;2023-06-14T07:12:09;5.18;;;2.55;;
66946;SDS011;53853;51.982;5.928;2023-06-14T07:14:39;4.30;;;2.05;;
66946;SDS011;53853;51.982;5.928;2023-06-14T07:17:09;5.57;;;2.55;;
66946;SDS011;53853;51.982;5.928;2023-06-14T07:19:39;5.85;;;2.22;;
66946;SDS011;53853;51.982;5.928;2023-06-14T07:22:12;4.35;;;1.90;;
66946;SDS011;53853;51.982;5.928;2023-06-14T07:24:42;4.28;;;1.88;;
66946;SDS011;53853;51.982;5.928;2023-06-14T07:27:14;4.85;;;2.65;;
66946;SDS011;53853;51.982;5.928;2023-06-14T07:29:44;3.33;;;2.08;;
66946;SDS011;53853;51.982;5.928;2023-06-14T07:32:14;10.02;;;2.45;;
66946;SDS011;53853;51.982;5.928;2023-06-14T07:34:44;4.68;;;1.90;;
66946;SDS011;53853;51.982;5.928;2023-06-14T07:37:13;5.57;;;2.20;;
66946;SDS011;53853;51.982;5.928;2023-06-14T07:39:43;3.10;;;2.03;;
66946;SDS011;53853;51.982;5.928;2023-06-14T07:42:16;4.65;;;1.65;;
66946;SDS011;53853;51.982;5.928;2023-06-14T07:44:46;3.55;;;1.83;;
66946;SDS011;53853;51.982;5.928;2023-06-14T07:47:18;4.20;;;1.85;;
66946;SDS011;53853;51.982;5.928;2023-06-14T07:49:47;2.28;;;1.40;;
66946;SDS011;53853;51.982;5.928;2023-06-14T07:52:17;2.22;;;1.40;;
66946;SDS011;53853;51.982;5.928;2023-06-14T07:54:47;5.15;;;1.80;;
66946;SDS011;53853;51.982;5.928;2023-06-14T07:57:20;2.65;;;1.85;;
66946;SDS011;53853;51.982;5.928;2023-06-14T07:59:49;4.65;;;1.65;;
66946;SDS011;53853;51.982;5.928;2023-06-14T08:02:19;2.17;;;1.50;;
66946;SDS011;53853;51.982;5.928;2023-06-14T08:04:49;3.15;;;2.05;;
66946;SDS011;53853;51.982;5.928;2023-06-14T08:07:19;3.10;;;1.80;;
66946;SDS011;53853;51.982;5.928;2023-06-14T08:09:49;3.33;;;1.60;;
66946;SDS011;53853;51.982;5.928;2023-06-14T08:12:22;4.35;;;1.80;;
66946;SDS011;53853;51.982;5.928;2023-06-14T08:14:52;2.83;;;1.73;;
66946;SDS011;53853;51.982;5.928;2023-06-14T08:17:21;4.53;;;1.67;;
66946;SDS011;53853;51.982;5.928;2023-06-14T08:19:52;5.18;;;1.58;;
66946;SDS011;53853;51.982;5.928;2023-06-14T08:22:23;2.50;;;1.58;;
66946;SDS011;53853;51.982;5.928;2023-06-14T08:24:54;4.18;;;2.10;;
66946;SDS011;53853;51.982;5.928;2023-06-14T08:27:27;9.02;;;2.45;;
66946;SDS011;53853;51.982;5.928;2023-06-14T08:29:57;6.18;;;2.03;;
66946;SDS011;53853;51.982;5.928;2023-06-14T08:32:27;3.85;;;1.88;;
66946;SDS011;53853;51.982;5.928;2023-06-14T08:34:57;5.13;;;2.22;;
66946;SDS011;53853;51.982;5.928;2023-06-14T08:37:28;3.13;;;1.92;;
66946;SDS011;53853;51.982;5.928;2023-06-14T08:39:59;5.47;;;2.20;;
66946;SDS011;53853;51.982;5.928;2023-06-14T08:42:33;4.18;;;2.22;;
66946;SDS011;53853;51.982;5.928;2023-06-14T08:45:06;4.80;;;2.05;;
66946;SDS011;53853;51.982;5.928;2023-06-14T08:47:36;4.25;;;2.30;;
66946;SDS011;53853;51.982;5.928;2023-06-14T08:50:07;3.92;;;1.88;;
66946;SDS011;53853;51.982;5.928;2023-06-14T08:52:38;4.07;;;1.85;;
66946;SDS011;53853;51.982;5.928;2023-06-14T08:55:15;2.67;;;1.75;;
66946;SDS011;53853;51.982;5.928;2023-06-14T08:57:48;4.22;;;1.98;;
66946;SDS011;53853;51.982;5.928;2023-06-14T09:00:19;2.63;;;1.70;;
66946;SDS011;53853;51.982;5.928;2023-06-14T09:02:50;3.35;;;1.98;;
66946;SDS011;53853;51.982;5.928;2023-06-14T09:05:22;2.70;;;1.55;;
66946;SDS011;53853;51.982;5.928;2023-06-14T09:07:52;6.43;;;2.03;;
66946;SDS011;53853;51.982;5.928;2023-06-14T09:10:24;6.57;;;2.03;;
66946;SDS011;53853;51.982;5.928;2023-06-14T09:12:58;4.40;;;2.20;;
66946;SDS011;53853;51.982;5.928;2023-06-14T09:15:30;3.45;;;1.80;;
66946;SDS011;53853;51.982;5.928;2023-06-14T09:18:00;4.18;;;1.63;;
66946;SDS011;53853;51.982;5.928;2023-06-14T09:20:32;7.45;;;1.60;;
66946;SDS011;53853;51.982;5.928;2023-06-14T09:23:01;2.78;;;1.80;;
66946;SDS011;53853;51.982;5.928;2023-06-14T09:25:41;11.73;;;6.00;;
66946;SDS011;53853;51.982;5.928;2023-06-14T09:28:14;11.45;;;8.32;;
66946;SDS011;53853;51.982;5.928;2023-06-14T09:30:45;60.47;;;47.08;;
66946;SDS011;53853;51.982;5.928;2023-06-14T09:33:18;39.97;;;34.25;;
66946;SDS011;53853;51.982;5.928;2023-06-14T09:35:50;38.15;;;30.65;;
66946;SDS011;53853;51.982;5.928;2023-06-14T09:38:21;8.60;;;5.55;;
66946;SDS011;53853;51.982;5.928;2023-06-14T09:40:50;9.00;;;7.50;;
66946;SDS011;53853;51.982;5.928;2023-06-14T09:43:23;7.05;;;6.00;;
66946;SDS011;53853;51.982;5.928;2023-06-14T09:45:54;4.80;;;3.47;;
66946;SDS011;53853;51.982;5.928;2023-06-14T09:48:24;4.47;;;2.35;;
66946;SDS011;53853;51.982;5.928;2023-06-14T09:50:53;3.78;;;1.50;;
66946;SDS011;53853;51.982;5.928;2023-06-14T09:53:26;3.08;;;1.58;;
66946;SDS011;53853;51.982;5.928;2023-06-14T09:55:59;2.83;;;1.80;;
66946;SDS011;53853;51.982;5.928;2023-06-14T09:58:32;5.22;;;1.75;;
66946;SDS011;53853;51.982;5.928;2023-06-14T10:01:08;3.65;;;1.40;;
66946;SDS011;53853;51.982;5.928;2023-06-14T10:03:39;4.25;;;1.58;;
66946;SDS011;53853;51.982;5.928;2023-06-14T10:06:10;4.25;;;1.80;;
66946;SDS011;53853;51.982;5.928;2023-06-14T10:08:40;2.88;;;1.80;;
66946;SDS011;53853;51.982;5.928;2023-06-14T10:11:12;2.45;;;1.35;;
66946;SDS011;53853;51.982;5.928;2023-06-14T10:13:45;2.90;;;1.38;;
66946;SDS011;53853;51.982;5.928;2023-06-14T10:16:17;3.80;;;1.70;;
66946;SDS011;53853;51.982;5.928;2023-06-14T10:18:59;2.38;;;1.33;;
66946;SDS011;53853;51.982;5.928;2023-06-14T10:21:37;5.65;;;1.70;;
66946;SDS011;53853;51.982;5.928;2023-06-14T10:24:16;3.58;;;1.70;;
66946;SDS011;53853;51.982;5.928;2023-06-14T10:29:25;2.97;;;1.60;;
66946;SDS011;53853;51.982;5.928;2023-06-14T10:31:58;3.95;;;1.75;;
66946;SDS011;53853;51.982;5.928;2023-06-14T10:34:30;3.63;;;1.90;;
66946;SDS011;53853;51.982;5.928;2023-06-14T10:37:01;3.80;;;1.60;;
66946;SDS011;53853;51.982;5.928;2023-06-14T10:39:32;4.25;;;1.80;;
66946;SDS011;53853;51.982;5.928;2023-06-14T10:42:07;2.58;;;1.40;;
66946;SDS011;53853;51.982;5.928;2023-06-14T10:44:41;2.63;;;1.30;;
66946;SDS011;53853;51.982;5.928;2023-06-14T10:47:23;3.05;;;1.30;;
66946;SDS011;53853;51.982;5.928;2023-06-14T10:49:54;2.42;;;1.48;;
66946;SDS011;53853;51.982;5.928;2023-06-14T10:52:27;2.08;;;1.20;;
66946;SDS011;53853;51.982;5.928;2023-06-14T10:55:10;3.92;;;1.60;;
66946;SDS011;53853;51.982;5.928;2023-06-14T10:57:43;3.05;;;1.48;;
66946;SDS011;53853;51.982;5.928;2023-06-14T11:00:20;5.07;;;1.50;;
66946;SDS011;53853;51.982;5.928;2023-06-14T11:05:57;2.83;;;1.55;;
66946;SDS011;53853;51.982;5.928;2023-06-14T11:11:32;3.13;;;1.73;;
66946;SDS011;53853;51.982;5.928;2023-06-14T11:14:04;3.38;;;1.80;;
66946;SDS011;53853;51.982;5.928;2023-06-14T11:16:37;2.75;;;1.38;;
66946;SDS011;53853;51.982;5.928;2023-06-14T11:19:07;2.42;;;1.50;;
66946;SDS011;53853;51.982;5.928;2023-06-14T11:21:39;4.45;;;1.30;;
66946;SDS011;53853;51.982;5.928;2023-06-14T11:24:10;4.40;;;1.70;;
66946;SDS011;53853;51.982;5.928;2023-06-14T11:26:40;3.05;;;1.73;;
66946;SDS011;53853;51.982;5.928;2023-06-14T11:29:11;3.83;;;1.92;;
66946;SDS011;53853;51.982;5.928;2023-06-14T11:31:45;3.25;;;1.73;;
66946;SDS011;53853;51.982;5.928;2023-06-14T11:34:15;6.78;;;2.40;;
66946;SDS011;53853;51.982;5.928;2023-06-14T11:36:45;4.05;;;2.03;;
66946;SDS011;53853;51.982;5.928;2023-06-14T11:39:16;6.32;;;2.08;;
66946;SDS011;53853;51.982;5.928;2023-06-14T11:41:46;3.33;;;1.73;;
66946;SDS011;53853;51.982;5.928;2023-06-14T11:44:15;2.40;;;1.67;;
66946;SDS011;53853;51.982;5.928;2023-06-14T11:46:48;3.33;;;1.58;;
66946;SDS011;53853;51.982;5.928;2023-06-14T11:49:18;4.60;;;2.10;;
66946;SDS011;53853;51.982;5.928;2023-06-14T11:51:48;5.03;;;1.80;;
66946;SDS011;53853;51.982;5.928;2023-06-14T11:54:17;4.07;;;1.63;;
66946;SDS011;53853;51.982;5.928;2023-06-14T11:56:47;5.63;;;1.63;;
66946;SDS011;53853;51.982;5.928;2023-06-14T11:59:17;3.47;;;1.60;;
66946;SDS011;53853;51.982;5.928;2023-06-14T12:01:52;2.83;;;1.67;;
66946;SDS011;53853;51.982;5.928;2023-06-14T12:04:26;2.83;;;1.67;;
66946;SDS011;53853;51.982;5.928;2023-06-14T12:06:56;3.15;;;1.90;;
66946;SDS011;53853;51.982;5.928;2023-06-14T12:09:40;3.03;;;1.63;;
66946;SDS011;53853;51.982;5.928;2023-06-14T12:12:12;3.42;;;1.88;;
66946;SDS011;53853;51.982;5.928;2023-06-14T12:14:41;4.28;;;1.90;;
66946;SDS011;53853;51.982;5.928;2023-06-14T12:17:16;5.13;;;1.88;;
66946;SDS011;53853;51.982;5.928;2023-06-14T12:19:46;3.25;;;2.00;;
66946;SDS011;53853;51.982;5.928;2023-06-14T12:22:17;2.95;;;1.50;;
66946;SDS011;53853;51.982;5.928;2023-06-14T12:24:48;3.50;;;1.75;;
66946;SDS011;53853;51.982;5.928;2023-06-14T12:27:18;2.53;;;1.50;;
66946;SDS011;53853;51.982;5.928;2023-06-14T12:30:00;5.70;;;1.85;;
66946;SDS011;53853;51.982;5.928;2023-06-14T12:32:36;2.78;;;1.88;;
66946;SDS011;53853;51.982;5.928;2023-06-14T12:35:06;2.13;;;1.10;;
66946;SDS011;53853;51.982;5.928;2023-06-14T12:37:36;2.20;;;1.33;;
66946;SDS011;53853;51.982;5.928;2023-06-14T12:40:06;4.32;;;1.40;;
66946;SDS011;53853;51.982;5.928;2023-06-14T12:42:37;3.97;;;1.73;;
66946;SDS011;53853;51.982;5.928;2023-06-14T12:45:07;2.67;;;1.35;;
66946;SDS011;53853;51.982;5.928;2023-06-14T12:47:41;32.75;;;4.85;;
66946;SDS011;53853;51.982;5.928;2023-06-14T12:50:11;9.00;;;4.05;;
66946;SDS011;53853;51.982;5.928;2023-06-14T12:52:41;3.67;;;1.30;;
66946;SDS011;53853;51.982;5.928;2023-06-14T12:55:11;4.38;;;1.60;;
66946;SDS011;53853;51.982;5.928;2023-06-14T12:57:41;4.15;;;1.73;;
66946;SDS011;53853;51.982;5.928;2023-06-14T13:00:11;2.70;;;1.48;;
66946;SDS011;53853;51.982;5.928;2023-06-14T13:02:45;3.28;;;1.45;;
66946;SDS011;53853;51.982;5.928;2023-06-14T13:05:16;3.90;;;1.52;;
66946;SDS011;53853;51.982;5.928;2023-06-14T13:07:46;4.38;;;1.75;;
66946;SDS011;53853;51.982;5.928;2023-06-14T13:10:16;3.30;;;1.30;;
66946;SDS011;53853;51.982;5.928;2023-06-14T13:12:46;2.60;;;1.40;;
66946;SDS011;53853;51.982;5.928;2023-06-14T13:15:16;2.65;;;0.95;;
66946;SDS011;53853;51.982;5.928;2023-06-14T13:17:48;4.40;;;1.38;;
66946;SDS011;53853;51.982;5.928;2023-06-14T13:20:18;2.50;;;1.27;;
66946;SDS011;53853;51.982;5.928;2023-06-14T13:22:48;3.33;;;1.20;;
66946;SDS011;53853;51.982;5.928;2023-06-14T13:25:18;2.78;;;1.40;;
66946;SDS011;53853;51.982;5.928;2023-06-14T13:27:48;2.72;;;1.20;;
66946;SDS011;53853;51.982;5.928;2023-06-14T13:30:18;1.92;;;1.08;;
66946;SDS011;53853;51.982;5.928;2023-06-14T13:32:50;2.47;;;1.00;;
66946;SDS011;53853;51.982;5.928;2023-06-14T13:35:21;2.42;;;1.10;;
66946;SDS011;53853;51.982;5.928;2023-06-14T13:37:52;2.03;;;1.02;;
66946;SDS011;53853;51.982;5.928;2023-06-14T13:40:22;4.95;;;1.10;;
66946;SDS011;53853;51.982;5.928;2023-06-14T13:42:51;3.50;;;1.45;;
66946;SDS011;53853;51.982;5.928;2023-06-14T13:45:21;2.45;;;1.08;;
66946;SDS011;53853;51.982;5.928;2023-06-14T13:47:54;1.73;;;1.00;;
66946;SDS011;53853;51.982;5.928;2023-06-14T13:50:23;4.35;;;1.30;;
66946;SDS011;53853;51.982;5.928;2023-06-14T13:52:53;2.25;;;1.10;;
66946;SDS011;53853;51.982;5.928;2023-06-14T13:55:23;2.42;;;0.90;;
66946;SDS011;53853;51.982;5.928;2023-06-14T13:57:53;3.35;;;1.13;;
66946;SDS011;53853;51.982;5.928;2023-06-14T14:00:23;12.70;;;2.30;;
66946;SDS011;53853;51.982;5.928;2023-06-14T14:02:56;2.38;;;1.25;;
66946;SDS011;53853;51.982;5.928;2023-06-14T14:05:26;3.13;;;1.10;;
66946;SDS011;53853;51.982;5.928;2023-06-14T14:07:56;3.10;;;1.15;;
66946;SDS011;53853;51.982;5.928;2023-06-14T14:10:27;2.80;;;1.13;;
66946;SDS011;53853;51.982;5.928;2023-06-14T14:12:57;3.35;;;1.50;;
66946;SDS011;53853;51.982;5.928;2023-06-14T14:15:27;4.05;;;2.00;;
66946;SDS011;53853;51.982;5.928;2023-06-14T14:18:03;19.17;;;3.47;;
66946;SDS011;53853;51.982;5.928;2023-06-14T14:20:33;5.50;;;1.37;;
66946;SDS011;53853;51.982;5.928;2023-06-14T14:23:02;2.22;;;1.10;;
66946;SDS011;53853;51.982;5.928;2023-06-14T14:25:32;3.92;;;1.20;;
66946;SDS011;53853;51.982;5.928;2023-06-14T14:28:02;1.75;;;1.05;;
66946;SDS011;53853;51.982;5.928;2023-06-14T14:30:32;5.70;;;2.72;;
66946;SDS011;53853;51.982;5.928;2023-06-14T14:33:08;5.07;;;1.75;;
66946;SDS011;53853;51.982;5.928;2023-06-14T14:35:41;3.85;;;2.53;;
66946;SDS011;53853;51.982;5.928;2023-06-14T14:38:11;1.48;;;0.95;;
66946;SDS011;53853;51.982;5.928;2023-06-14T14:40:41;2.28;;;1.25;;
66946;SDS011;53853;51.982;5.928;2023-06-14T14:43:12;2.50;;;1.20;;
66946;SDS011;53853;51.982;5.928;2023-06-14T14:45:42;1.67;;;0.98;;
66946;SDS011;53853;51.982;5.928;2023-06-14T14:48:14;2.83;;;1.25;;
66946;SDS011;53853;51.982;5.928;2023-06-14T14:50:44;3.28;;;1.38;;
66946;SDS011;53853;51.982;5.928;2023-06-14T14:53:14;2.70;;;1.23;;
66946;SDS011;53853;51.982;5.928;2023-06-14T14:55:44;2.67;;;1.13;;
66946;SDS011;53853;51.982;5.928;2023-06-14T14:58:14;1.90;;;1.05;;
66946;SDS011;53853;51.982;5.928;2023-06-14T15:00:45;3.45;;;1.20;;
66946;SDS011;53853;51.982;5.928;2023-06-14T15:03:18;2.65;;;1.13;;
66946;SDS011;53853;51.982;5.928;2023-06-14T15:05:48;1.83;;;1.00;;
66946;SDS011;53853;51.982;5.928;2023-06-14T15:08:17;1.85;;;1.10;;
66946;SDS011;53853;51.982;5.928;2023-06-14T15:10:48;3.78;;;1.42;;
66946;SDS011;53853;51.982;5.928;2023-06-14T15:13:18;2.83;;;1.00;;
66946;SDS011;53853;51.982;5.928;2023-06-14T15:15:48;3.28;;;1.23;;
66946;SDS011;53853;51.982;5.928;2023-06-14T15:18:21;2.17;;;1.55;;
66946;SDS011;53853;51.982;5.928;2023-06-14T15:20:51;2.75;;;1.30;;